• Join FlightAware (Why Join?)
  • Login
  • US Flag 
02:51AM EDT


 

Airport Tracker/Info


-or-


 

Live Flight TrackerFlight Track Log ✈ ASQ4283 ✈ 11-Jul-2013 ✈ KIAH - KCLT

Flight Track Log - Related Links

Times and Time Zones

All times are in EDT time to prevent confusion due to time zone crossing. See the ASQ4283 flight status page for this flight to view local times or setup timezone preferences in your user account.

Time Position Orientation Groundspeed Altitude Reporting Facility
EDT Latitude Longitude Course Direction KTS MPH feet Rate Location/Type
12:45PM 29.9531 -95.3422 35° Northeast 165 190 700  Level Houston Center
12:45PM 29.9214 -95.3628 209° Southwest 203 234 1,800 1,260 Climbing Houston Center
12:46PM 29.9669 -95.3767 345° North 251 289 3,000 1,200 Climbing Houston Center
12:47PM 30.0047 -95.3550 26° Northeast 244 281 3,700 600 Climbing Houston Center
12:48PM 30.0708 -95.3175 26° Northeast 255 293 4,000 660 Climbing Houston Center
12:49PM 30.1386 -95.2792 26° Northeast 263 303 5,100 1,380 Climbing Houston Center
12:50PM 30.5115 -94.9141 35° Northeast  Level FlightAware Approximate
12:50PM 30.1969 -95.2211 41° Northeast 277 319 6,900  Level Houston Center
12:51PM 30.2564 -95.1656 39° Northeast 275 316 8,800 1,560 Climbing Houston Center
12:52PM 30.3178 -95.1097 38° Northeast 278 320 10,200 1,080 Climbing Houston Center
12:53PM 30.3997 -95.0356 38° Northeast 311 358 11,100 780 Climbing Houston Center
12:54PM 30.4711 -94.9675 39° Northeast 330 380 11,900 900 Climbing Houston Center
12:56PM 30.6012 -94.8420 32° Northeast  Level FlightAware Approximate
12:56PM 30.6278 -94.8336 32° Northeast 349 402 14,000  Level Houston Center
12:57PM 30.7097 -94.7725 33° Northeast 349 402 15,100 1,080 Climbing Houston Center
12:58PM 30.8069 -94.6961 34° Northeast 350 403 16,300 1,080 Climbing Houston Center
12:59PM 30.8886 -94.6336 33° Northeast 352 405 17,400 960 Climbing Houston Center
01:00PM 30.9692 -94.5708 34° Northeast 350 403 18,300 960 Climbing Houston Center
01:01PM 31.0497 -94.5072 34° Northeast 351 404 19,400 960 Climbing Houston Center
01:02PM 31.1297 -94.4453 34° Northeast 350 403 20,400 1,020 Climbing Houston Center
01:03PM 31.2208 -94.3756 33° Northeast 330 380 21,600 1,020 Climbing Houston Center
01:04PM 31.2922 -94.3203 33° Northeast 312 359 22,600 780 Climbing Houston Center
01:06PM 31.3650 -94.2636 34° Northeast 314 361 23,300 660 Climbing Houston Center
01:07PM 31.4397 -94.2053 34° Northeast 322 371 24,000 660 Climbing Houston Center
01:08PM 31.5172 -94.1453 33° Northeast 330 380 24,700 720 Climbing Houston Center
01:09PM 31.6117 -94.0697 34° Northeast 341 392 25,500 660 Climbing Houston Center
01:10PM 31.6925 -94.0067 34° Northeast 347 399 26,100 600 Climbing Houston Center
01:11PM 31.7731 -93.9431 34° Northeast 349 402 26,800 780 Climbing Houston Center
01:12PM 31.8569 -93.8764 34° Northeast 348 400 27,800 960 Climbing Houston Center
01:13PM 31.9358 -93.8144 34° Northeast 340 391 28,900 960 Climbing Houston Center
01:14PM 32.0119 -93.7536 34° Northeast 331 381 29,900 960 Climbing Houston Center
01:15PM 32.0831 -93.6961 34° Northeast 326 375 30,900 960 Climbing Houston Center
01:16PM 32.1467 -93.6497 32° Northeast 323 372 31,700 1,020 Climbing Fort Worth Center
01:17PM 32.2217 -93.5778 39° Northeast 323 372 32,800 840 Climbing Fort Worth Center
01:18PM 32.2931 -93.5231 33° Northeast 308 354 33,400 540 Climbing Fort Worth Center
01:19PM 32.3664 -93.4633 35° Northeast 308 354 33,900 540 Climbing Fort Worth Center
01:20PM 32.4378 -93.4061 34° Northeast 308 354 34,500 540 Climbing Fort Worth Center
01:21PM 32.5131 -93.3486 33° Northeast 308 354 35,000 240 Climbing Fort Worth Center
01:22PM 32.5883 -93.2861 35° Northeast 314 361 35,000  Level Fort Worth Center
01:23PM 32.6697 -93.2206 34° Northeast 326 375 35,000  Level Fort Worth Center
01:24PM 32.7528 -93.1525 35° Northeast 346 398 35,000  Level Fort Worth Center
01:25PM 32.8403 -93.0817 34° Northeast 366 421 35,000  Level Fort Worth Center
01:26PM 32.9336 -93.0078 34° Northeast 379 436 35,000  Level Fort Worth Center
01:27PM 33.0250 -92.9314 35° Northeast 389 448 35,000  Level Fort Worth Center
01:28PM 33.1200 -92.8522 35° Northeast 394 453 35,000  Level Fort Worth Center
01:29PM 33.2175 -92.7778 33° Northeast 408 470 35,000  Level Fort Worth Center
01:30PM 33.2975 -92.6817 45° Northeast 413 475 35,000  Level Fort Worth Center
01:31PM 33.3728 -92.5733 50° Northeast 413 475 35,000  Level Fort Worth Center
01:33PM 33.5139 -92.3553 52° Northeast 401 461 35,000  Level Memphis Center
01:34PM 33.5844 -92.2522 51° Northeast 401 461 35,000  Level Memphis Center
01:35PM 33.6569 -92.1417 52° Northeast 406 467 35,000  Level Memphis Center
01:36PM 33.7233 -92.0331 54° Northeast 406 467 35,000  Level Memphis Center
01:37PM 33.7978 -91.9219 51° Northeast 406 467 35,000  Level Memphis Center
01:38PM 33.8700 -91.8108 52° Northeast 413 475 35,000  Level Memphis Center
01:39PM 33.9467 -91.6867 53° Northeast 418 481 35,000  Level Memphis Center
01:40PM 34.0167 -91.5725 53° Northeast 423 487 35,000  Level Memphis Center
01:41PM 34.0906 -91.4583 52° Northeast 429 494 35,000  Level Memphis Center
01:42PM 34.1647 -91.3461 51° Northeast 429 494 35,000  Level Memphis Center
01:43PM 34.2364 -91.2339 52° Northeast 429 494 35,000  Level Memphis Center
01:44PM 34.3103 -91.1167 53° Northeast 429 494 35,000  Level Memphis Center
01:45PM 34.3756 -91.0139 52° Northeast 429 494 35,000  Level Memphis Center
01:46PM 34.4450 -90.8986 54° Northeast 427 491 35,000  Level Memphis Center
01:47PM 34.5206 -90.7831 52° Northeast 432 497 35,000  Level Memphis Center
01:48PM 34.5897 -90.6650 55° Northeast 432 497 35,000  Level Memphis Center
01:49PM 34.6650 -90.5517 51° Northeast 432 497 35,000  Level Memphis Center
01:50PM 34.7425 -90.4203 54° Northeast 432 497 35,000  Level Memphis Center
01:51PM 34.8175 -90.3014 52° Northeast 432 497 35,000  Level Memphis Center
01:52PM 34.8925 -90.1875 51° Northeast 437 503 35,000  Level Memphis Center
01:53PM 34.9672 -90.0656 53° Northeast 437 503 35,000  Level Memphis Center
01:54PM 35.0358 -89.9411 56° Northeast 443 510 35,000  Level Memphis Center
01:55PM 35.0875 -89.7961 66° East 450 518 35,000  Level Memphis Center
01:56PM 35.1306 -89.6664 68° East 455 524 35,000  Level Memphis Center
01:57PM 35.1819 -89.5264 66° East 455 524 35,000  Level Memphis Center
01:58PM 35.2308 -89.3833 67° East 455 524 35,000  Level Memphis Center
01:59PM 35.2797 -89.2406 67° East 455 524 35,000  Level Memphis Center
02:00PM 35.3344 -89.0819 67° East 455 524 35,000  Level Memphis Center
02:01PM 35.3850 -88.9361 67° East 455 524 35,000  Level Memphis Center
02:02PM 35.4333 -88.7900 68° East 461 531 35,000  Level Memphis Center
02:03PM 35.4836 -88.6436 67° East 461 531 35,000  Level Memphis Center
02:04PM 35.5356 -88.4944 67° East 461 531 35,000  Level Memphis Center
02:05PM 35.5875 -88.3453 67° East 461 531 35,000  Level Memphis Center
02:06PM 35.6392 -88.1958 67° East 461 531 35,000  Level Memphis Center
02:07PM 35.6844 -88.0439 70° East 461 531 35,000  Level Memphis Center
02:08PM 35.7378 -87.8917 67° East 471 542 35,000  Level Memphis Center
02:09PM 35.7869 -87.7392 68° East 478 550 35,000  Level Memphis Center
02:10PM 35.8378 -87.5889 67° East 478 550 35,000  Level Memphis Center
02:11PM 35.8883 -87.4308 68° East 477 549 35,000  Level Memphis Center
02:12PM 35.9389 -87.2778 68° East 482 555 35,000  Level Memphis Center
02:13PM 35.9911 -87.1219 67° East 482 555 35,000  Level Memphis Center
02:14PM 36.0414 -86.9661 68° East 482 555 35,000  Level Memphis Center
02:15PM 36.0931 -86.8072 68° East 482 555 35,000  Level Memphis Center
02:16PM 36.1281 -86.6439 75° East 482 555 35,000  Level Memphis Center
02:17PM 36.1186 -86.4772 94° East 482 555 35,000  Level Memphis Center
02:18PM 36.1069 -86.3056 95° East 487 560 35,000  Level Memphis Center
02:19PM 36.0931 -86.1367 96° East 492 566 35,000  Level Memphis Center
02:21PM 36.0669 -85.7778 95° East 479 551 35,000  Level Atlanta Center
02:22PM 36.0525 -85.6106 96° East 490 564 35,000  Level Atlanta Center
02:23PM 36.0400 -85.4408 95° East 497 572 35,000  Level Atlanta Center
02:24PM 36.0269 -85.2789 96° East 497 572 35,000  Level Atlanta Center
02:25PM 36.0139 -85.1117 95° East 491 565 35,000  Level Atlanta Center
02:26PM 36.0028 -84.9397 95° East 486 559 35,000  Level Atlanta Center
02:27PM 35.9853 -84.7650 97° East 492 566 35,000  Level Atlanta Center
02:28PM 35.9672 -84.5956 97° East 505 581 35,000  Level Atlanta Center
02:29PM 35.9533 -84.4442 96° East 500 575 35,000 -120 Level Atlanta Center
02:30PM 35.9392 -84.2722 96° East 500 575 34,800 -600 Descending Atlanta Center
02:31PM 35.9228 -84.1081 97° East 500 575 33,900 -900 Descending Atlanta Center
02:32PM 35.9081 -83.9389 96° East 500 575 33,000 -900 Descending Atlanta Center
02:33PM 35.8994 -83.7697 94° East 500 575 32,100 -1,560 Descending Atlanta Center
02:34PM 35.8969 -83.6006 91° East 495 570 29,900 -1,560 Descending Atlanta Center
02:35PM 35.8942 -83.4339 91° East 489 563 29,000 -480 Descending Atlanta Center
02:36PM 35.8911 -83.2775 91° East 473 544 29,000 -180 Level Atlanta Center
02:37PM 35.8881 -83.1494 92° East 440 506 28,700 -720 Descending Atlanta Center
02:38PM 35.8847 -82.9778 91° East 421 484 27,600 -1,080 Descending Atlanta Center
02:39PM 35.8814 -82.8394 92° East 416 479 26,600 -960 Descending Atlanta Center
02:40PM 35.9197 -82.7131 69° East 384 442 25,700 -960 Descending Atlanta Center
02:41PM 35.9872 -82.6042 53° Northeast 389 448 24,700 -960 Descending Atlanta Center
02:42PM 36.0486 -82.4978 54° Northeast 390 449 23,800 -960 Descending Atlanta Center
02:43PM 36.0972 -82.3889 61° Northeast 371 427 22,800 -1,020 Descending Atlanta Center
02:44PM 36.0561 -82.2767 114° Southeast 329 379 21,800 -900 Descending Atlanta Center
02:45PM 36.0025 -82.1906 128° Southeast 341 392 21,000 -900 Descending Atlanta Center
02:46PM 35.9386 -82.0922 129° Southeast 366 421 20,000 -1,020 Descending Atlanta Center
02:47PM 35.8764 -81.9961 129° Southeast 366 421 19,000 -1,080 Descending Atlanta Center
02:48PM 35.8536 -81.8842 104° East 338 389 17,900 -1,500 Descending Atlanta Center
02:49PM 35.8325 -81.7567 102° East 333 383 16,100 -1,980 Descending Atlanta Center
02:50PM 35.8000 -81.6883 120° Southeast 324 373 14,600 -1,800 Descending Atlanta Center
02:51PM 35.6925 -81.6325 157° South 299 344 12,600 -1,740 Descending Atlanta Center
02:52PM 35.6294 -81.6039 160° South 316 364 11,100 -960 Descending Atlanta Center
02:53PM 35.5675 -81.5317 137° Southeast 308 354 11,000 -480 Descending Atlanta Center
02:54PM 35.5258 -81.4411 119° Southeast 305 351 10,200 -900 Descending Atlanta Center
02:55PM 35.5072 -81.3447 103° East 285 328 9,200 -1,020 Descending Atlanta Center
02:56PM 35.4881 -81.2381 102° East 276 318 8,000 -1,080 Descending Atlanta Center
02:57PM 35.4864 -81.1694 92° East 247 284 7,100 -1,080 Descending Atlanta Center
02:58PM 35.4950 -81.0850 83° East 247 284 6,100 -840 Descending Atlanta Center
02:59PM 35.4847 -81.0114 100° East 218 251 5,500 -720 Descending Atlanta Center
03:00PM 35.4319 -80.9853 158° South 202 232 4,700 -1,020 Descending Atlanta Center
03:01PM 35.3694 -80.9825 178° South 193 222 3,400 -1,200 Descending Atlanta Center